sensor_id;sensor_type;location;lat;lon;timestamp;P1;durP1;ratioP1;P2;durP2;ratioP2
48835;SDS011;62581;47.342;7.908;2022-12-18T00:01:32;60.83;;;25.00;;
48835;SDS011;62581;47.342;7.908;2022-12-18T00:04:01;57.42;;;23.63;;
48835;SDS011;62581;47.342;7.908;2022-12-18T00:06:34;59.13;;;23.10;;
48835;SDS011;62581;47.342;7.908;2022-12-18T00:09:02;56.38;;;23.45;;
48835;SDS011;62581;47.342;7.908;2022-12-18T00:11:30;58.92;;;25.23;;
48835;SDS011;62581;47.342;7.908;2022-12-18T00:13:58;63.83;;;24.70;;
48835;SDS011;62581;47.342;7.908;2022-12-18T00:16:26;60.20;;;23.35;;
48835;SDS011;62581;47.342;7.908;2022-12-18T00:18:59;56.78;;;25.45;;
48835;SDS011;62581;47.342;7.908;2022-12-18T00:21:26;52.53;;;21.75;;
48835;SDS011;62581;47.342;7.908;2022-12-18T00:23:54;54.92;;;21.98;;
48835;SDS011;62581;47.342;7.908;2022-12-18T00:26:22;56.72;;;22.88;;
48835;SDS011;62581;47.342;7.908;2022-12-18T00:28:50;58.50;;;23.80;;
48835;SDS011;62581;47.342;7.908;2022-12-18T00:31:19;55.55;;;22.02;;
48835;SDS011;62581;47.342;7.908;2022-12-18T00:33:47;55.65;;;21.13;;
48835;SDS011;62581;47.342;7.908;2022-12-18T00:36:16;59.72;;;22.52;;
48835;SDS011;62581;47.342;7.908;2022-12-18T00:38:44;54.88;;;22.05;;
48835;SDS011;62581;47.342;7.908;2022-12-18T00:41:12;52.13;;;20.15;;
48835;SDS011;62581;47.342;7.908;2022-12-18T00:44:01;49.83;;;19.90;;
48835;SDS011;62581;47.342;7.908;2022-12-18T00:46:27;82.35;;;28.00;;
48835;SDS011;62581;47.342;7.908;2022-12-18T00:48:54;94.85;;;32.20;;
48835;SDS011;62581;47.342;7.908;2022-12-18T00:51:23;57.22;;;22.75;;
48835;SDS011;62581;47.342;7.908;2022-12-18T00:53:50;82.15;;;30.63;;
48835;SDS011;62581;47.342;7.908;2022-12-18T00:56:18;96.47;;;35.00;;
48835;SDS011;62581;47.342;7.908;2022-12-18T00:58:47;59.55;;;24.88;;
48835;SDS011;62581;47.342;7.908;2022-12-18T01:01:15;153.98;;;68.22;;
48835;SDS011;62581;47.342;7.908;2022-12-18T01:03:42;124.47;;;55.33;;
48835;SDS011;62581;47.342;7.908;2022-12-18T01:06:10;57.10;;;22.45;;
48835;SDS011;62581;47.342;7.908;2022-12-18T01:08:40;48.13;;;19.58;;
48835;SDS011;62581;47.342;7.908;2022-12-18T01:11:07;50.35;;;20.00;;
48835;SDS011;62581;47.342;7.908;2022-12-18T01:16:02;45.00;;;18.95;;
48835;SDS011;62581;47.342;7.908;2022-12-18T01:18:30;49.75;;;20.55;;
48835;SDS011;62581;47.342;7.908;2022-12-18T01:20:57;54.08;;;21.73;;
48835;SDS011;62581;47.342;7.908;2022-12-18T01:23:24;49.22;;;20.52;;
48835;SDS011;62581;47.342;7.908;2022-12-18T01:25:55;58.97;;;24.02;;
48835;SDS011;62581;47.342;7.908;2022-12-18T01:28:22;101.65;;;40.42;;
48835;SDS011;62581;47.342;7.908;2022-12-18T01:30:48;52.17;;;21.83;;
48835;SDS011;62581;47.342;7.908;2022-12-18T01:33:15;44.92;;;19.48;;
48835;SDS011;62581;47.342;7.908;2022-12-18T01:35:42;48.08;;;21.20;;
48835;SDS011;62581;47.342;7.908;2022-12-18T01:38:09;49.42;;;20.13;;
48835;SDS011;62581;47.342;7.908;2022-12-18T01:40:36;49.92;;;20.17;;
48835;SDS011;62581;47.342;7.908;2022-12-18T01:43:04;47.65;;;19.10;;
48835;SDS011;62581;47.342;7.908;2022-12-18T01:45:31;48.90;;;20.48;;
48835;SDS011;62581;47.342;7.908;2022-12-18T01:47:59;57.22;;;19.92;;
48835;SDS011;62581;47.342;7.908;2022-12-18T01:50:29;49.67;;;20.98;;
48835;SDS011;62581;47.342;7.908;2022-12-18T01:53:00;43.10;;;19.52;;
48835;SDS011;62581;47.342;7.908;2022-12-18T01:55:35;49.03;;;19.85;;
48835;SDS011;62581;47.342;7.908;2022-12-18T01:58:09;50.92;;;20.27;;
48835;SDS011;62581;47.342;7.908;2022-12-18T02:00:36;49.70;;;19.35;;
48835;SDS011;62581;47.342;7.908;2022-12-18T02:03:03;51.35;;;21.52;;
48835;SDS011;62581;47.342;7.908;2022-12-18T02:05:36;48.10;;;20.65;;
48835;SDS011;62581;47.342;7.908;2022-12-18T02:08:10;46.03;;;18.80;;
48835;SDS011;62581;47.342;7.908;2022-12-18T02:10:44;63.30;;;24.17;;
48835;SDS011;62581;47.342;7.908;2022-12-18T02:13:18;56.75;;;22.30;;
48835;SDS011;62581;47.342;7.908;2022-12-18T02:15:54;55.05;;;20.65;;
48835;SDS011;62581;47.342;7.908;2022-12-18T02:18:28;47.63;;;20.05;;
48835;SDS011;62581;47.342;7.908;2022-12-18T02:21:00;47.53;;;20.02;;
48835;SDS011;62581;47.342;7.908;2022-12-18T02:23:45;45.45;;;19.13;;
48835;SDS011;62581;47.342;7.908;2022-12-18T02:26:19;48.58;;;19.42;;
48835;SDS011;62581;47.342;7.908;2022-12-18T02:28:51;42.03;;;18.88;;
48835;SDS011;62581;47.342;7.908;2022-12-18T02:31:21;44.03;;;19.95;;
48835;SDS011;62581;47.342;7.908;2022-12-18T02:33:52;50.78;;;19.48;;
48835;SDS011;62581;47.342;7.908;2022-12-18T02:36:21;43.83;;;18.20;;
48835;SDS011;62581;47.342;7.908;2022-12-18T02:38:49;45.92;;;18.58;;
48835;SDS011;62581;47.342;7.908;2022-12-18T02:41:19;44.75;;;19.48;;
48835;SDS011;62581;47.342;7.908;2022-12-18T02:43:52;44.63;;;19.25;;
48835;SDS011;62581;47.342;7.908;2022-12-18T02:46:31;45.80;;;18.65;;
48835;SDS011;62581;47.342;7.908;2022-12-18T02:49:11;46.47;;;18.90;;
48835;SDS011;62581;47.342;7.908;2022-12-18T02:51:50;49.92;;;19.88;;
48835;SDS011;62581;47.342;7.908;2022-12-18T02:54:36;49.67;;;20.08;;
48835;SDS011;62581;47.342;7.908;2022-12-18T02:57:15;51.17;;;21.75;;
48835;SDS011;62581;47.342;7.908;2022-12-18T02:59:48;47.72;;;20.20;;
48835;SDS011;62581;47.342;7.908;2022-12-18T03:02:23;47.35;;;21.30;;
48835;SDS011;62581;47.342;7.908;2022-12-18T03:04:58;49.08;;;21.50;;
48835;SDS011;62581;47.342;7.908;2022-12-18T03:07:33;53.90;;;21.73;;
48835;SDS011;62581;47.342;7.908;2022-12-18T03:10:03;50.03;;;21.00;;
48835;SDS011;62581;47.342;7.908;2022-12-18T03:12:35;55.22;;;23.60;;
48835;SDS011;62581;47.342;7.908;2022-12-18T03:15:08;54.00;;;23.33;;
48835;SDS011;62581;47.342;7.908;2022-12-18T03:17:38;57.85;;;23.42;;
48835;SDS011;62581;47.342;7.908;2022-12-18T03:20:12;56.45;;;22.17;;
48835;SDS011;62581;47.342;7.908;2022-12-18T03:22:48;48.80;;;21.85;;
48835;SDS011;62581;47.342;7.908;2022-12-18T03:25:19;53.58;;;23.48;;
48835;SDS011;62581;47.342;7.908;2022-12-18T03:27:49;54.80;;;23.92;;
48835;SDS011;62581;47.342;7.908;2022-12-18T03:30:20;52.72;;;23.42;;
48835;SDS011;62581;47.342;7.908;2022-12-18T03:32:47;50.00;;;21.60;;
48835;SDS011;62581;47.342;7.908;2022-12-18T03:35:21;51.10;;;21.90;;
48835;SDS011;62581;47.342;7.908;2022-12-18T03:37:50;60.13;;;23.15;;
48835;SDS011;62581;47.342;7.908;2022-12-18T03:40:17;55.40;;;23.95;;
48835;SDS011;62581;47.342;7.908;2022-12-18T03:42:46;50.13;;;22.55;;
48835;SDS011;62581;47.342;7.908;2022-12-18T03:45:19;52.47;;;23.00;;
48835;SDS011;62581;47.342;7.908;2022-12-18T03:47:53;57.22;;;22.73;;
48835;SDS011;62581;47.342;7.908;2022-12-18T03:50:31;53.83;;;20.63;;
48835;SDS011;62581;47.342;7.908;2022-12-18T03:53:06;54.97;;;22.30;;
48835;SDS011;62581;47.342;7.908;2022-12-18T03:55:40;54.67;;;22.25;;
48835;SDS011;62581;47.342;7.908;2022-12-18T03:58:10;54.45;;;22.77;;
48835;SDS011;62581;47.342;7.908;2022-12-18T04:00:42;53.33;;;23.08;;
48835;SDS011;62581;47.342;7.908;2022-12-18T04:03:10;50.17;;;21.45;;
48835;SDS011;62581;47.342;7.908;2022-12-18T04:05:38;59.22;;;23.83;;
48835;SDS011;62581;47.342;7.908;2022-12-18T04:08:07;55.33;;;22.58;;
48835;SDS011;62581;47.342;7.908;2022-12-18T04:10:34;47.70;;;18.85;;
48835;SDS011;62581;47.342;7.908;2022-12-18T04:13:01;56.15;;;22.48;;
48835;SDS011;62581;47.342;7.908;2022-12-18T04:15:30;51.63;;;21.38;;
48835;SDS011;62581;47.342;7.908;2022-12-18T04:18:01;54.00;;;21.85;;
48835;SDS011;62581;47.342;7.908;2022-12-18T04:20:28;57.38;;;20.92;;
48835;SDS011;62581;47.342;7.908;2022-12-18T04:22:56;54.50;;;23.73;;
48835;SDS011;62581;47.342;7.908;2022-12-18T04:25:23;53.03;;;21.75;;
48835;SDS011;62581;47.342;7.908;2022-12-18T04:27:50;56.15;;;23.52;;
48835;SDS011;62581;47.342;7.908;2022-12-18T04:30:17;59.33;;;23.17;;
48835;SDS011;62581;47.342;7.908;2022-12-18T04:32:45;63.03;;;24.35;;
48835;SDS011;62581;47.342;7.908;2022-12-18T04:35:12;56.63;;;22.88;;
48835;SDS011;62581;47.342;7.908;2022-12-18T04:37:39;53.58;;;21.92;;
48835;SDS011;62581;47.342;7.908;2022-12-18T04:40:07;56.72;;;23.13;;
48835;SDS011;62581;47.342;7.908;2022-12-18T04:42:34;53.70;;;20.38;;
48835;SDS011;62581;47.342;7.908;2022-12-18T04:45:01;60.28;;;21.83;;
48835;SDS011;62581;47.342;7.908;2022-12-18T04:47:29;55.50;;;22.10;;
48835;SDS011;62581;47.342;7.908;2022-12-18T04:49:58;54.60;;;21.35;;
48835;SDS011;62581;47.342;7.908;2022-12-18T04:52:25;53.67;;;20.77;;
48835;SDS011;62581;47.342;7.908;2022-12-18T04:54:52;52.58;;;22.25;;
48835;SDS011;62581;47.342;7.908;2022-12-18T04:57:19;49.58;;;20.88;;
48835;SDS011;62581;47.342;7.908;2022-12-18T04:59:46;53.53;;;21.73;;
48835;SDS011;62581;47.342;7.908;2022-12-18T05:02:13;53.17;;;21.25;;
48835;SDS011;62581;47.342;7.908;2022-12-18T05:04:40;54.25;;;20.63;;
48835;SDS011;62581;47.342;7.908;2022-12-18T05:07:08;50.50;;;21.63;;
48835;SDS011;62581;47.342;7.908;2022-12-18T05:09:35;47.38;;;19.95;;
48835;SDS011;62581;47.342;7.908;2022-12-18T05:12:02;51.60;;;21.63;;
48835;SDS011;62581;47.342;7.908;2022-12-18T05:14:29;52.25;;;21.15;;
48835;SDS011;62581;47.342;7.908;2022-12-18T05:16:56;46.90;;;19.98;;
48835;SDS011;62581;47.342;7.908;2022-12-18T05:19:23;53.05;;;22.10;;
48835;SDS011;62581;47.342;7.908;2022-12-18T05:21:50;50.25;;;21.02;;
48835;SDS011;62581;47.342;7.908;2022-12-18T05:24:18;56.17;;;22.13;;
48835;SDS011;62581;47.342;7.908;2022-12-18T05:26:45;51.83;;;21.80;;
48835;SDS011;62581;47.342;7.908;2022-12-18T05:29:12;53.95;;;20.13;;
48835;SDS011;62581;47.342;7.908;2022-12-18T05:31:39;45.47;;;20.23;;
48835;SDS011;62581;47.342;7.908;2022-12-18T05:34:06;44.72;;;19.15;;
48835;SDS011;62581;47.342;7.908;2022-12-18T05:36:33;46.17;;;19.00;;
48835;SDS011;62581;47.342;7.908;2022-12-18T05:39:00;38.83;;;17.50;;
48835;SDS011;62581;47.342;7.908;2022-12-18T05:41:29;41.72;;;17.80;;
48835;SDS011;62581;47.342;7.908;2022-12-18T05:43:56;51.60;;;21.38;;
48835;SDS011;62581;47.342;7.908;2022-12-18T05:46:23;47.85;;;19.60;;
48835;SDS011;62581;47.342;7.908;2022-12-18T05:48:50;42.58;;;19.10;;
48835;SDS011;62581;47.342;7.908;2022-12-18T05:51:18;47.15;;;19.80;;
48835;SDS011;62581;47.342;7.908;2022-12-18T05:53:46;48.90;;;19.80;;
48835;SDS011;62581;47.342;7.908;2022-12-18T05:56:14;40.92;;;19.05;;
48835;SDS011;62581;47.342;7.908;2022-12-18T05:58:45;47.20;;;19.25;;
48835;SDS011;62581;47.342;7.908;2022-12-18T06:01:14;42.15;;;20.02;;
48835;SDS011;62581;47.342;7.908;2022-12-18T06:03:42;43.25;;;18.30;;
48835;SDS011;62581;47.342;7.908;2022-12-18T06:06:12;38.42;;;17.60;;
48835;SDS011;62581;47.342;7.908;2022-12-18T06:08:41;47.67;;;19.38;;
48835;SDS011;62581;47.342;7.908;2022-12-18T06:11:07;37.00;;;15.65;;
48835;SDS011;62581;47.342;7.908;2022-12-18T06:13:34;42.40;;;18.20;;
48835;SDS011;62581;47.342;7.908;2022-12-18T06:16:04;44.65;;;18.13;;
48835;SDS011;62581;47.342;7.908;2022-12-18T06:18:32;44.47;;;19.77;;
48835;SDS011;62581;47.342;7.908;2022-12-18T06:20:59;43.88;;;17.42;;
48835;SDS011;62581;47.342;7.908;2022-12-18T06:23:26;45.40;;;18.50;;
48835;SDS011;62581;47.342;7.908;2022-12-18T06:25:54;39.15;;;17.15;;
48835;SDS011;62581;47.342;7.908;2022-12-18T06:28:21;43.55;;;19.40;;
48835;SDS011;62581;47.342;7.908;2022-12-18T06:30:48;40.38;;;17.40;;
48835;SDS011;62581;47.342;7.908;2022-12-18T06:33:17;39.03;;;17.27;;
48835;SDS011;62581;47.342;7.908;2022-12-18T06:35:44;41.60;;;18.83;;
48835;SDS011;62581;47.342;7.908;2022-12-18T06:38:11;50.83;;;20.15;;
48835;SDS011;62581;47.342;7.908;2022-12-18T06:40:38;42.00;;;18.88;;
48835;SDS011;62581;47.342;7.908;2022-12-18T06:43:05;43.47;;;17.75;;
48835;SDS011;62581;47.342;7.908;2022-12-18T06:45:32;40.58;;;18.08;;
48835;SDS011;62581;47.342;7.908;2022-12-18T06:47:59;43.80;;;17.88;;
48835;SDS011;62581;47.342;7.908;2022-12-18T06:50:28;31.83;;;15.23;;
48835;SDS011;62581;47.342;7.908;2022-12-18T06:52:55;42.85;;;18.45;;
48835;SDS011;62581;47.342;7.908;2022-12-18T06:55:22;38.95;;;17.80;;
48835;SDS011;62581;47.342;7.908;2022-12-18T06:57:48;35.35;;;16.60;;
48835;SDS011;62581;47.342;7.908;2022-12-18T07:00:16;40.72;;;18.52;;
48835;SDS011;62581;47.342;7.908;2022-12-18T07:02:43;39.33;;;17.63;;
48835;SDS011;62581;47.342;7.908;2022-12-18T07:05:10;35.45;;;17.83;;
48835;SDS011;62581;47.342;7.908;2022-12-18T07:07:38;43.30;;;18.77;;
48835;SDS011;62581;47.342;7.908;2022-12-18T07:10:05;45.08;;;18.98;;
48835;SDS011;62581;47.342;7.908;2022-12-18T07:12:32;35.45;;;17.52;;
48835;SDS011;62581;47.342;7.908;2022-12-18T07:14:59;39.53;;;18.67;;
48835;SDS011;62581;47.342;7.908;2022-12-18T07:17:26;41.85;;;18.85;;
48835;SDS011;62581;47.342;7.908;2022-12-18T07:19:54;38.40;;;17.13;;
48835;SDS011;62581;47.342;7.908;2022-12-18T07:22:21;43.13;;;18.67;;
48835;SDS011;62581;47.342;7.908;2022-12-18T07:24:50;37.28;;;16.92;;
48835;SDS011;62581;47.342;7.908;2022-12-18T07:27:17;41.65;;;18.63;;
48835;SDS011;62581;47.342;7.908;2022-12-18T07:29:44;47.67;;;19.92;;
48835;SDS011;62581;47.342;7.908;2022-12-18T07:32:11;36.40;;;16.95;;
48835;SDS011;62581;47.342;7.908;2022-12-18T07:34:37;41.78;;;18.02;;
48835;SDS011;62581;47.342;7.908;2022-12-18T07:37:04;43.08;;;18.17;;
48835;SDS011;62581;47.342;7.908;2022-12-18T07:39:31;37.63;;;17.90;;
48835;SDS011;62581;47.342;7.908;2022-12-18T07:42:00;37.72;;;17.60;;
48835;SDS011;62581;47.342;7.908;2022-12-18T07:44:46;43.70;;;18.98;;
48835;SDS011;62581;47.342;7.908;2022-12-18T07:47:13;38.83;;;17.85;;
48835;SDS011;62581;47.342;7.908;2022-12-18T07:49:40;42.05;;;17.77;;
48835;SDS011;62581;47.342;7.908;2022-12-18T07:52:07;43.95;;;17.42;;
48835;SDS011;62581;47.342;7.908;2022-12-18T07:54:34;41.05;;;17.80;;
48835;SDS011;62581;47.342;7.908;2022-12-18T07:57:02;40.60;;;17.35;;
48835;SDS011;62581;47.342;7.908;2022-12-18T07:59:29;38.50;;;16.88;;
48835;SDS011;62581;47.342;7.908;2022-12-18T08:01:56;43.10;;;17.58;;
48835;SDS011;62581;47.342;7.908;2022-12-18T08:04:23;34.22;;;15.77;;
48835;SDS011;62581;47.342;7.908;2022-12-18T08:06:50;37.13;;;17.05;;
48835;SDS011;62581;47.342;7.908;2022-12-18T08:09:18;42.55;;;17.90;;
48835;SDS011;62581;47.342;7.908;2022-12-18T08:11:45;37.10;;;17.25;;
48835;SDS011;62581;47.342;7.908;2022-12-18T08:14:13;40.85;;;18.00;;
48835;SDS011;62581;47.342;7.908;2022-12-18T08:16:40;41.17;;;17.42;;
48835;SDS011;62581;47.342;7.908;2022-12-18T08:19:10;40.80;;;17.75;;
48835;SDS011;62581;47.342;7.908;2022-12-18T08:21:37;42.10;;;18.25;;
48835;SDS011;62581;47.342;7.908;2022-12-18T08:24:08;37.78;;;15.50;;
48835;SDS011;62581;47.342;7.908;2022-12-18T08:26:36;43.13;;;17.10;;
48835;SDS011;62581;47.342;7.908;2022-12-18T08:29:02;35.67;;;15.75;;
48835;SDS011;62581;47.342;7.908;2022-12-18T08:31:31;38.22;;;16.65;;
48835;SDS011;62581;47.342;7.908;2022-12-18T08:33:58;41.83;;;14.60;;
48835;SDS011;62581;47.342;7.908;2022-12-18T08:36:25;39.42;;;17.70;;
48835;SDS011;62581;47.342;7.908;2022-12-18T08:38:52;38.33;;;17.35;;
48835;SDS011;62581;47.342;7.908;2022-12-18T08:41:19;35.47;;;17.75;;
48835;SDS011;62581;47.342;7.908;2022-12-18T08:43:47;36.35;;;16.73;;
48835;SDS011;62581;47.342;7.908;2022-12-18T08:46:34;37.08;;;17.13;;
48835;SDS011;62581;47.342;7.908;2022-12-18T08:49:02;41.25;;;17.98;;
48835;SDS011;62581;47.342;7.908;2022-12-18T08:51:30;42.63;;;18.00;;
48835;SDS011;62581;47.342;7.908;2022-12-18T08:53:57;39.00;;;17.63;;
48835;SDS011;62581;47.342;7.908;2022-12-18T08:56:24;37.75;;;15.93;;
48835;SDS011;62581;47.342;7.908;2022-12-18T08:58:52;40.30;;;18.08;;
48835;SDS011;62581;47.342;7.908;2022-12-18T09:01:19;42.33;;;17.23;;
48835;SDS011;62581;47.342;7.908;2022-12-18T09:03:48;46.00;;;18.90;;
48835;SDS011;62581;47.342;7.908;2022-12-18T09:06:16;42.10;;;18.05;;
48835;SDS011;62581;47.342;7.908;2022-12-18T09:11:12;38.13;;;15.40;;
48835;SDS011;62581;47.342;7.908;2022-12-18T09:13:44;38.95;;;16.45;;
48835;SDS011;62581;47.342;7.908;2022-12-18T09:16:11;35.15;;;15.20;;
48835;SDS011;62581;47.342;7.908;2022-12-18T09:18:38;37.95;;;16.55;;
48835;SDS011;62581;47.342;7.908;2022-12-18T09:21:11;39.15;;;16.73;;
48835;SDS011;62581;47.342;7.908;2022-12-18T09:23:40;32.38;;;15.23;;
48835;SDS011;62581;47.342;7.908;2022-12-18T09:26:07;37.10;;;16.55;;
48835;SDS011;62581;47.342;7.908;2022-12-18T09:28:34;34.55;;;15.35;;
48835;SDS011;62581;47.342;7.908;2022-12-18T09:31:03;37.20;;;16.33;;
48835;SDS011;62581;47.342;7.908;2022-12-18T09:33:32;34.10;;;14.95;;
48835;SDS011;62581;47.342;7.908;2022-12-18T09:36:00;37.35;;;15.88;;
48835;SDS011;62581;47.342;7.908;2022-12-18T09:38:29;42.78;;;18.15;;
48835;SDS011;62581;47.342;7.908;2022-12-18T09:40:57;37.50;;;16.77;;
48835;SDS011;62581;47.342;7.908;2022-12-18T09:43:29;39.58;;;16.98;;
48835;SDS011;62581;47.342;7.908;2022-12-18T09:46:03;39.70;;;17.23;;
48835;SDS011;62581;47.342;7.908;2022-12-18T09:48:34;41.58;;;19.23;;
48835;SDS011;62581;47.342;7.908;2022-12-18T09:51:05;38.20;;;17.40;;
48835;SDS011;62581;47.342;7.908;2022-12-18T09:53:41;41.05;;;19.17;;
48835;SDS011;62581;47.342;7.908;2022-12-18T09:56:15;38.20;;;17.27;;
48835;SDS011;62581;47.342;7.908;2022-12-18T09:58:48;43.25;;;19.95;;
48835;SDS011;62581;47.342;7.908;2022-12-18T10:01:22;41.40;;;18.45;;
48835;SDS011;62581;47.342;7.908;2022-12-18T10:03:49;45.73;;;18.63;;
48835;SDS011;62581;47.342;7.908;2022-12-18T10:06:18;36.58;;;17.45;;
48835;SDS011;62581;47.342;7.908;2022-12-18T10:08:55;40.67;;;17.70;;
48835;SDS011;62581;47.342;7.908;2022-12-18T10:11:34;38.67;;;16.55;;
48835;SDS011;62581;47.342;7.908;2022-12-18T10:14:09;35.78;;;17.77;;
48835;SDS011;62581;47.342;7.908;2022-12-18T10:16:43;37.08;;;17.38;;
48835;SDS011;62581;47.342;7.908;2022-12-18T10:19:18;40.40;;;17.77;;
48835;SDS011;62581;47.342;7.908;2022-12-18T10:21:56;37.35;;;16.23;;
48835;SDS011;62581;47.342;7.908;2022-12-18T10:24:32;40.05;;;18.70;;
48835;SDS011;62581;47.342;7.908;2022-12-18T10:27:11;42.45;;;18.48;;
48835;SDS011;62581;47.342;7.908;2022-12-18T10:29:41;36.78;;;17.45;;
48835;SDS011;62581;47.342;7.908;2022-12-18T10:32:13;37.88;;;17.85;;
48835;SDS011;62581;47.342;7.908;2022-12-18T10:34:43;38.33;;;17.75;;
48835;SDS011;62581;47.342;7.908;2022-12-18T10:37:12;39.90;;;17.40;;
48835;SDS011;62581;47.342;7.908;2022-12-18T10:39:44;36.15;;;16.60;;
48835;SDS011;62581;47.342;7.908;2022-12-18T10:44:42;33.33;;;16.20;;
48835;SDS011;62581;47.342;7.908;2022-12-18T10:47:11;36.95;;;17.38;;
48835;SDS011;62581;47.342;7.908;2022-12-18T10:49:42;37.10;;;17.77;;
48835;SDS011;62581;47.342;7.908;2022-12-18T10:52:16;33.33;;;15.95;;
48835;SDS011;62581;47.342;7.908;2022-12-18T10:54:50;41.03;;;18.38;;
48835;SDS011;62581;47.342;7.908;2022-12-18T10:57:29;38.42;;;17.15;;
48835;SDS011;62581;47.342;7.908;2022-12-18T11:00:00;36.88;;;16.63;;
48835;SDS011;62581;47.342;7.908;2022-12-18T11:02:47;34.80;;;17.38;;
48835;SDS011;62581;47.342;7.908;2022-12-18T11:05:27;34.05;;;16.90;;
48835;SDS011;62581;47.342;7.908;2022-12-18T11:07:56;35.72;;;16.98;;
48835;SDS011;62581;47.342;7.908;2022-12-18T11:10:28;36.10;;;17.13;;
48835;SDS011;62581;47.342;7.908;2022-12-18T11:13:08;38.42;;;18.00;;
48835;SDS011;62581;47.342;7.908;2022-12-18T11:15:37;34.58;;;17.92;;
48835;SDS011;62581;47.342;7.908;2022-12-18T11:18:14;33.47;;;15.50;;
48835;SDS011;62581;47.342;7.908;2022-12-18T11:20:44;38.38;;;18.23;;
48835;SDS011;62581;47.342;7.908;2022-12-18T11:23:17;35.45;;;16.80;;
48835;SDS011;62581;47.342;7.908;2022-12-18T11:25:51;37.15;;;17.92;;
48835;SDS011;62581;47.342;7.908;2022-12-18T11:28:36;40.17;;;17.10;;
48835;SDS011;62581;47.342;7.908;2022-12-18T11:31:11;38.58;;;18.30;;
48835;SDS011;62581;47.342;7.908;2022-12-18T11:33:44;36.95;;;18.08;;
48835;SDS011;62581;47.342;7.908;2022-12-18T11:36:14;38.55;;;17.20;;
48835;SDS011;62581;47.342;7.908;2022-12-18T11:41:13;38.30;;;16.80;;
48835;SDS011;62581;47.342;7.908;2022-12-18T11:43:48;38.45;;;17.25;;
48835;SDS011;62581;47.342;7.908;2022-12-18T11:46:23;33.58;;;16.45;;
48835;SDS011;62581;47.342;7.908;2022-12-18T11:48:58;37.88;;;17.75;;
48835;SDS011;62581;47.342;7.908;2022-12-18T11:51:32;35.95;;;16.67;;
48835;SDS011;62581;47.342;7.908;2022-12-18T11:54:07;35.80;;;16.42;;
48835;SDS011;62581;47.342;7.908;2022-12-18T11:56:41;34.75;;;17.27;;
48835;SDS011;62581;47.342;7.908;2022-12-18T11:59:14;36.53;;;16.15;;
48835;SDS011;62581;47.342;7.908;2022-12-18T12:01:47;34.85;;;16.80;;
48835;SDS011;62581;47.342;7.908;2022-12-18T12:07:24;38.38;;;17.33;;
48835;SDS011;62581;47.342;7.908;2022-12-18T12:10:05;35.17;;;16.77;;
48835;SDS011;62581;47.342;7.908;2022-12-18T12:12:48;32.17;;;16.17;;
48835;SDS011;62581;47.342;7.908;2022-12-18T12:15:28;36.85;;;16.73;;
48835;SDS011;62581;47.342;7.908;2022-12-18T12:18:05;36.80;;;17.13;;
48835;SDS011;62581;47.342;7.908;2022-12-18T12:20:42;36.90;;;16.98;;
48835;SDS011;62581;47.342;7.908;2022-12-18T12:23:18;32.88;;;16.42;;
48835;SDS011;62581;47.342;7.908;2022-12-18T12:25:54;34.15;;;16.10;;
48835;SDS011;62581;47.342;7.908;2022-12-18T12:28:32;33.75;;;15.77;;
48835;SDS011;62581;47.342;7.908;2022-12-18T12:31:15;35.72;;;16.40;;
48835;SDS011;62581;47.342;7.908;2022-12-18T12:33:59;38.95;;;16.90;;
48835;SDS011;62581;47.342;7.908;2022-12-18T12:36:41;36.53;;;18.73;;
48835;SDS011;62581;47.342;7.908;2022-12-18T12:39:18;33.88;;;16.70;;
48835;SDS011;62581;47.342;7.908;2022-12-18T12:41:49;35.50;;;17.08;;
48835;SDS011;62581;47.342;7.908;2022-12-18T12:44:37;34.42;;;16.95;;
48835;SDS011;62581;47.342;7.908;2022-12-18T12:47:10;38.03;;;16.88;;
48835;SDS011;62581;47.342;7.908;2022-12-18T12:49:41;34.28;;;16.65;;
48835;SDS011;62581;47.342;7.908;2022-12-18T12:52:14;38.67;;;17.73;;
48835;SDS011;62581;47.342;7.908;2022-12-18T12:54:43;37.33;;;17.38;;
48835;SDS011;62581;47.342;7.908;2022-12-18T12:57:12;31.58;;;16.50;;
48835;SDS011;62581;47.342;7.908;2022-12-18T12:59:49;44.28;;;18.23;;
48835;SDS011;62581;47.342;7.908;2022-12-18T13:02:24;39.13;;;18.05;;
48835;SDS011;62581;47.342;7.908;2022-12-18T13:04:56;35.03;;;17.23;;
48835;SDS011;62581;47.342;7.908;2022-12-18T13:07:29;38.00;;;17.55;;
48835;SDS011;62581;47.342;7.908;2022-12-18T13:10:11;35.20;;;16.75;;
48835;SDS011;62581;47.342;7.908;2022-12-18T13:12:51;39.50;;;19.13;;
48835;SDS011;62581;47.342;7.908;2022-12-18T13:15:23;40.55;;;20.08;;
48835;SDS011;62581;47.342;7.908;2022-12-18T13:18:02;37.17;;;17.90;;
48835;SDS011;62581;47.342;7.908;2022-12-18T13:20:44;34.15;;;16.70;;
48835;SDS011;62581;47.342;7.908;2022-12-18T13:28:59;33.53;;;16.42;;
48835;SDS011;62581;47.342;7.908;2022-12-18T13:34:36;35.17;;;16.20;;
48835;SDS011;62581;47.342;7.908;2022-12-18T13:43:32;36.35;;;16.33;;
48835;SDS011;62581;47.342;7.908;2022-12-18T13:46:05;34.70;;;16.60;;
48835;SDS011;62581;47.342;7.908;2022-12-18T13:48:49;37.78;;;17.25;;
48835;SDS011;62581;47.342;7.908;2022-12-18T13:51:19;34.20;;;16.13;;
48835;SDS011;62581;47.342;7.908;2022-12-18T13:53:48;36.15;;;16.25;;
48835;SDS011;62581;47.342;7.908;2022-12-18T13:56:17;33.58;;;16.60;;
48835;SDS011;62581;47.342;7.908;2022-12-18T14:01:31;35.25;;;17.13;;
48835;SDS011;62581;47.342;7.908;2022-12-18T14:04:11;34.95;;;16.50;;
48835;SDS011;62581;47.342;7.908;2022-12-18T14:06:46;43.92;;;19.02;;
48835;SDS011;62581;47.342;7.908;2022-12-18T14:09:15;34.95;;;16.52;;
48835;SDS011;62581;47.342;7.908;2022-12-18T14:11:51;39.05;;;17.15;;
48835;SDS011;62581;47.342;7.908;2022-12-18T14:14:41;35.22;;;17.23;;
48835;SDS011;62581;47.342;7.908;2022-12-18T14:17:10;33.70;;;17.17;;
48835;SDS011;62581;47.342;7.908;2022-12-18T14:19:40;36.83;;;16.42;;
48835;SDS011;62581;47.342;7.908;2022-12-18T14:22:14;36.95;;;16.88;;
48835;SDS011;62581;47.342;7.908;2022-12-18T14:24:44;34.20;;;16.95;;
48835;SDS011;62581;47.342;7.908;2022-12-18T14:27:13;35.08;;;17.38;;
48835;SDS011;62581;47.342;7.908;2022-12-18T14:29:48;31.70;;;16.02;;
48835;SDS011;62581;47.342;7.908;2022-12-18T14:32:16;36.00;;;16.75;;
48835;SDS011;62581;47.342;7.908;2022-12-18T14:34:44;37.85;;;15.98;;
48835;SDS011;62581;47.342;7.908;2022-12-18T14:37:14;35.60;;;16.80;;
48835;SDS011;62581;47.342;7.908;2022-12-18T14:39:51;33.88;;;17.30;;
48835;SDS011;62581;47.342;7.908;2022-12-18T14:42:23;36.63;;;17.15;;
48835;SDS011;62581;47.342;7.908;2022-12-18T14:47:53;34.65;;;15.52;;
48835;SDS011;62581;47.342;7.908;2022-12-18T14:50:20;35.75;;;16.60;;
48835;SDS011;62581;47.342;7.908;2022-12-18T14:52:49;32.95;;;16.05;;
48835;SDS011;62581;47.342;7.908;2022-12-18T14:57:44;38.47;;;17.55;;
48835;SDS011;62581;47.342;7.908;2022-12-18T15:00:15;40.20;;;16.83;;
48835;SDS011;62581;47.342;7.908;2022-12-18T15:02:45;37.17;;;16.63;;
48835;SDS011;62581;47.342;7.908;2022-12-18T15:05:16;33.65;;;16.13;;
48835;SDS011;62581;47.342;7.908;2022-12-18T15:07:46;38.15;;;17.50;;
48835;SDS011;62581;47.342;7.908;2022-12-18T15:10:16;35.72;;;16.98;;
48835;SDS011;62581;47.342;7.908;2022-12-18T15:12:45;36.22;;;16.42;;
48835;SDS011;62581;47.342;7.908;2022-12-18T15:20:42;34.92;;;15.40;;
48835;SDS011;62581;47.342;7.908;2022-12-18T15:23:15;35.17;;;16.42;;